sensor_id;sensor_type;location;lat;lon;timestamp;P1;durP1;ratioP1;P2;durP2;ratioP2
52730;SDS011;38624;53.242;6.974;2023-12-29T00:01:56;7.20;;;2.20;;
52730;SDS011;38624;53.242;6.974;2023-12-29T00:04:22;14.18;;;2.42;;
52730;SDS011;38624;53.242;6.974;2023-12-29T00:06:48;10.95;;;2.55;;
52730;SDS011;38624;53.242;6.974;2023-12-29T00:09:16;7.80;;;2.58;;
52730;SDS011;38624;53.242;6.974;2023-12-29T00:11:46;8.70;;;2.22;;
52730;SDS011;38624;53.242;6.974;2023-12-29T00:14:14;10.50;;;2.40;;
52730;SDS011;38624;53.242;6.974;2023-12-29T00:16:40;11.65;;;2.47;;
52730;SDS011;38624;53.242;6.974;2023-12-29T00:19:06;10.93;;;2.50;;
52730;SDS011;38624;53.242;6.974;2023-12-29T00:21:32;10.00;;;2.20;;
52730;SDS011;38624;53.242;6.974;2023-12-29T00:23:58;8.88;;;2.03;;
52730;SDS011;38624;53.242;6.974;2023-12-29T00:26:23;12.23;;;2.00;;
52730;SDS011;38624;53.242;6.974;2023-12-29T00:28:49;10.98;;;2.42;;
52730;SDS011;38624;53.242;6.974;2023-12-29T00:31:15;9.63;;;2.42;;
52730;SDS011;38624;53.242;6.974;2023-12-29T00:33:42;10.43;;;2.03;;
52730;SDS011;38624;53.242;6.974;2023-12-29T00:36:08;16.30;;;2.45;;
52730;SDS011;38624;53.242;6.974;2023-12-29T00:38:42;11.38;;;2.47;;
52730;SDS011;38624;53.242;6.974;2023-12-29T00:41:08;13.07;;;3.00;;
52730;SDS011;38624;53.242;6.974;2023-12-29T00:43:34;16.50;;;3.58;;
52730;SDS011;38624;53.242;6.974;2023-12-29T00:46:04;10.60;;;2.40;;
52730;SDS011;38624;53.242;6.974;2023-12-29T00:48:33;10.35;;;2.28;;
52730;SDS011;38624;53.242;6.974;2023-12-29T00:51:00;9.10;;;2.50;;
52730;SDS011;38624;53.242;6.974;2023-12-29T00:53:27;11.40;;;2.45;;
52730;SDS011;38624;53.242;6.974;2023-12-29T00:55:54;11.88;;;2.45;;
52730;SDS011;38624;53.242;6.974;2023-12-29T00:58:20;9.98;;;2.17;;
52730;SDS011;38624;53.242;6.974;2023-12-29T01:00:45;11.70;;;2.20;;
52730;SDS011;38624;53.242;6.974;2023-12-29T01:03:11;12.05;;;2.30;;
52730;SDS011;38624;53.242;6.974;2023-12-29T01:05:37;7.82;;;2.28;;
52730;SDS011;38624;53.242;6.974;2023-12-29T01:08:03;10.13;;;2.25;;
52730;SDS011;38624;53.242;6.974;2023-12-29T01:10:28;8.52;;;2.03;;
52730;SDS011;38624;53.242;6.974;2023-12-29T01:12:54;10.55;;;2.00;;
52730;SDS011;38624;53.242;6.974;2023-12-29T01:15:20;4.28;;;1.55;;
52730;SDS011;38624;53.242;6.974;2023-12-29T01:17:46;8.43;;;2.00;;
52730;SDS011;38624;53.242;6.974;2023-12-29T01:20:11;10.35;;;2.45;;
52730;SDS011;38624;53.242;6.974;2023-12-29T01:22:37;5.05;;;1.63;;
52730;SDS011;38624;53.242;6.974;2023-12-29T01:25:03;8.18;;;2.20;;
52730;SDS011;38624;53.242;6.974;2023-12-29T01:27:29;11.90;;;2.35;;
52730;SDS011;38624;53.242;6.974;2023-12-29T01:29:55;10.03;;;2.10;;
52730;SDS011;38624;53.242;6.974;2023-12-29T01:32:21;11.18;;;1.95;;
52730;SDS011;38624;53.242;6.974;2023-12-29T01:34:47;9.05;;;2.30;;
52730;SDS011;38624;53.242;6.974;2023-12-29T01:37:13;10.48;;;2.83;;
52730;SDS011;38624;53.242;6.974;2023-12-29T01:39:38;9.77;;;2.38;;
52730;SDS011;38624;53.242;6.974;2023-12-29T01:42:07;11.20;;;2.10;;
52730;SDS011;38624;53.242;6.974;2023-12-29T01:44:33;14.50;;;2.63;;
52730;SDS011;38624;53.242;6.974;2023-12-29T01:46:59;15.50;;;2.35;;
52730;SDS011;38624;53.242;6.974;2023-12-29T01:49:26;13.40;;;2.70;;
52730;SDS011;38624;53.242;6.974;2023-12-29T01:51:56;12.48;;;2.80;;
52730;SDS011;38624;53.242;6.974;2023-12-29T01:54:24;13.05;;;2.45;;
52730;SDS011;38624;53.242;6.974;2023-12-29T01:56:54;13.05;;;2.50;;
52730;SDS011;38624;53.242;6.974;2023-12-29T01:59:21;9.43;;;1.98;;
52730;SDS011;38624;53.242;6.974;2023-12-29T02:01:48;13.52;;;3.05;;
52730;SDS011;38624;53.242;6.974;2023-12-29T02:04:14;10.93;;;3.05;;
52730;SDS011;38624;53.242;6.974;2023-12-29T02:06:42;5.00;;;1.65;;
52730;SDS011;38624;53.242;6.974;2023-12-29T02:09:07;4.25;;;1.77;;
52730;SDS011;38624;53.242;6.974;2023-12-29T02:11:33;2.07;;;0.87;;
52730;SDS011;38624;53.242;6.974;2023-12-29T02:13:59;2.65;;;0.98;;
52730;SDS011;38624;53.242;6.974;2023-12-29T02:19:01;1.98;;;0.88;;
52730;SDS011;38624;53.242;6.974;2023-12-29T02:21:44;2.35;;;0.90;;
52730;SDS011;38624;53.242;6.974;2023-12-29T02:24:10;3.80;;;0.95;;
52730;SDS011;38624;53.242;6.974;2023-12-29T02:26:36;1.85;;;0.80;;
52730;SDS011;38624;53.242;6.974;2023-12-29T02:29:02;3.03;;;0.80;;
52730;SDS011;38624;53.242;6.974;2023-12-29T02:31:34;3.72;;;1.00;;
52730;SDS011;38624;53.242;6.974;2023-12-29T02:34:03;3.90;;;1.15;;
52730;SDS011;38624;53.242;6.974;2023-12-29T02:36:32;5.18;;;1.23;;
52730;SDS011;38624;53.242;6.974;2023-12-29T02:38:59;7.75;;;1.35;;
52730;SDS011;38624;53.242;6.974;2023-12-29T02:41:25;5.00;;;1.37;;
52730;SDS011;38624;53.242;6.974;2023-12-29T02:43:50;7.78;;;1.45;;
52730;SDS011;38624;53.242;6.974;2023-12-29T02:46:16;8.35;;;1.60;;
52730;SDS011;38624;53.242;6.974;2023-12-29T02:48:42;8.95;;;1.50;;
52730;SDS011;38624;53.242;6.974;2023-12-29T02:51:08;7.43;;;1.42;;
52730;SDS011;38624;53.242;6.974;2023-12-29T02:53:33;8.73;;;1.52;;
52730;SDS011;38624;53.242;6.974;2023-12-29T02:55:59;9.43;;;1.95;;
52730;SDS011;38624;53.242;6.974;2023-12-29T02:58:25;5.50;;;1.38;;
52730;SDS011;38624;53.242;6.974;2023-12-29T03:00:50;10.05;;;2.38;;
52730;SDS011;38624;53.242;6.974;2023-12-29T03:03:16;7.05;;;1.75;;
52730;SDS011;38624;53.242;6.974;2023-12-29T03:05:42;12.55;;;2.25;;
52730;SDS011;38624;53.242;6.974;2023-12-29T03:08:07;8.80;;;1.67;;
52730;SDS011;38624;53.242;6.974;2023-12-29T03:10:33;7.88;;;2.03;;
52730;SDS011;38624;53.242;6.974;2023-12-29T03:12:59;10.95;;;2.20;;
52730;SDS011;38624;53.242;6.974;2023-12-29T03:15:24;10.50;;;1.67;;
52730;SDS011;38624;53.242;6.974;2023-12-29T03:17:50;7.43;;;1.63;;
52730;SDS011;38624;53.242;6.974;2023-12-29T03:20:15;12.05;;;2.08;;
52730;SDS011;38624;53.242;6.974;2023-12-29T03:22:41;7.82;;;1.88;;
52730;SDS011;38624;53.242;6.974;2023-12-29T03:25:07;12.52;;;1.98;;
52730;SDS011;38624;53.242;6.974;2023-12-29T03:27:33;11.32;;;2.20;;
52730;SDS011;38624;53.242;6.974;2023-12-29T03:29:58;9.70;;;2.72;;
52730;SDS011;38624;53.242;6.974;2023-12-29T03:32:24;6.50;;;2.00;;
52730;SDS011;38624;53.242;6.974;2023-12-29T03:34:49;9.00;;;2.15;;
52730;SDS011;38624;53.242;6.974;2023-12-29T03:37:15;16.02;;;2.45;;
52730;SDS011;38624;53.242;6.974;2023-12-29T03:39:41;14.40;;;2.80;;
52730;SDS011;38624;53.242;6.974;2023-12-29T03:42:06;16.15;;;2.75;;
52730;SDS011;38624;53.242;6.974;2023-12-29T03:44:32;13.57;;;2.75;;
52730;SDS011;38624;53.242;6.974;2023-12-29T03:46:58;17.20;;;3.72;;
52730;SDS011;38624;53.242;6.974;2023-12-29T03:49:24;14.23;;;2.45;;
52730;SDS011;38624;53.242;6.974;2023-12-29T03:51:50;14.32;;;2.80;;
52730;SDS011;38624;53.242;6.974;2023-12-29T03:54:15;14.07;;;2.58;;
52730;SDS011;38624;53.242;6.974;2023-12-29T03:56:43;18.98;;;3.03;;
52730;SDS011;38624;53.242;6.974;2023-12-29T03:59:09;16.25;;;3.05;;
52730;SDS011;38624;53.242;6.974;2023-12-29T04:01:34;14.45;;;2.95;;
52730;SDS011;38624;53.242;6.974;2023-12-29T04:04:00;17.73;;;3.42;;
52730;SDS011;38624;53.242;6.974;2023-12-29T04:06:26;16.95;;;3.13;;
52730;SDS011;38624;53.242;6.974;2023-12-29T04:08:51;19.33;;;3.55;;
52730;SDS011;38624;53.242;6.974;2023-12-29T04:11:17;14.02;;;2.83;;
52730;SDS011;38624;53.242;6.974;2023-12-29T04:13:43;16.98;;;2.83;;
52730;SDS011;38624;53.242;6.974;2023-12-29T04:16:08;23.88;;;3.45;;
52730;SDS011;38624;53.242;6.974;2023-12-29T04:18:34;14.77;;;3.40;;
52730;SDS011;38624;53.242;6.974;2023-12-29T04:21:00;19.02;;;3.13;;
52730;SDS011;38624;53.242;6.974;2023-12-29T04:23:25;16.98;;;4.07;;
52730;SDS011;38624;53.242;6.974;2023-12-29T04:25:51;19.80;;;3.05;;
52730;SDS011;38624;53.242;6.974;2023-12-29T04:28:17;20.15;;;3.30;;
52730;SDS011;38624;53.242;6.974;2023-12-29T04:30:42;20.83;;;3.05;;
52730;SDS011;38624;53.242;6.974;2023-12-29T04:33:08;16.98;;;3.63;;
52730;SDS011;38624;53.242;6.974;2023-12-29T04:35:34;18.35;;;3.20;;
52730;SDS011;38624;53.242;6.974;2023-12-29T04:37:59;16.40;;;3.30;;
52730;SDS011;38624;53.242;6.974;2023-12-29T04:40:25;24.63;;;3.70;;
52730;SDS011;38624;53.242;6.974;2023-12-29T04:42:51;19.90;;;3.33;;
52730;SDS011;38624;53.242;6.974;2023-12-29T04:45:17;17.98;;;3.33;;
52730;SDS011;38624;53.242;6.974;2023-12-29T04:47:43;20.80;;;2.67;;
52730;SDS011;38624;53.242;6.974;2023-12-29T04:50:08;24.05;;;3.20;;
52730;SDS011;38624;53.242;6.974;2023-12-29T04:52:34;19.35;;;3.78;;
52730;SDS011;38624;53.242;6.974;2023-12-29T04:55:00;16.88;;;3.45;;
52730;SDS011;38624;53.242;6.974;2023-12-29T04:57:25;15.88;;;2.28;;
52730;SDS011;38624;53.242;6.974;2023-12-29T04:59:51;14.07;;;2.47;;
52730;SDS011;38624;53.242;6.974;2023-12-29T05:02:17;18.02;;;3.05;;
52730;SDS011;38624;53.242;6.974;2023-12-29T05:04:44;17.98;;;3.00;;
52730;SDS011;38624;53.242;6.974;2023-12-29T05:07:11;20.27;;;2.73;;
52730;SDS011;38624;53.242;6.974;2023-12-29T05:09:37;17.17;;;2.88;;
52730;SDS011;38624;53.242;6.974;2023-12-29T05:12:02;21.65;;;3.50;;
52730;SDS011;38624;53.242;6.974;2023-12-29T05:14:28;18.60;;;3.07;;
52730;SDS011;38624;53.242;6.974;2023-12-29T05:16:54;11.90;;;2.67;;
52730;SDS011;38624;53.242;6.974;2023-12-29T05:19:20;17.90;;;2.85;;
52730;SDS011;38624;53.242;6.974;2023-12-29T05:21:46;20.90;;;3.05;;
52730;SDS011;38624;53.242;6.974;2023-12-29T05:24:14;20.42;;;3.78;;
52730;SDS011;38624;53.242;6.974;2023-12-29T05:26:40;29.92;;;4.40;;
52730;SDS011;38624;53.242;6.974;2023-12-29T05:29:06;18.17;;;3.00;;
52730;SDS011;38624;53.242;6.974;2023-12-29T05:31:31;15.55;;;3.03;;
52730;SDS011;38624;53.242;6.974;2023-12-29T05:33:57;21.38;;;3.65;;
52730;SDS011;38624;53.242;6.974;2023-12-29T05:36:23;17.60;;;3.53;;
52730;SDS011;38624;53.242;6.974;2023-12-29T05:38:48;22.52;;;2.83;;
52730;SDS011;38624;53.242;6.974;2023-12-29T05:41:14;20.08;;;3.25;;
52730;SDS011;38624;53.242;6.974;2023-12-29T05:43:40;25.83;;;3.95;;
52730;SDS011;38624;53.242;6.974;2023-12-29T05:46:09;17.55;;;3.10;;
52730;SDS011;38624;53.242;6.974;2023-12-29T05:48:38;14.98;;;2.90;;
52730;SDS011;38624;53.242;6.974;2023-12-29T05:51:11;12.20;;;2.70;;
52730;SDS011;38624;53.242;6.974;2023-12-29T05:53:41;21.08;;;3.38;;
52730;SDS011;38624;53.242;6.974;2023-12-29T05:56:07;19.30;;;3.67;;
52730;SDS011;38624;53.242;6.974;2023-12-29T05:58:34;13.65;;;2.78;;
52730;SDS011;38624;53.242;6.974;2023-12-29T06:01:00;21.33;;;3.60;;
52730;SDS011;38624;53.242;6.974;2023-12-29T06:03:26;19.55;;;3.00;;
52730;SDS011;38624;53.242;6.974;2023-12-29T06:05:52;19.95;;;3.53;;
52730;SDS011;38624;53.242;6.974;2023-12-29T06:08:18;17.55;;;2.97;;
52730;SDS011;38624;53.242;6.974;2023-12-29T06:10:44;16.33;;;2.75;;
52730;SDS011;38624;53.242;6.974;2023-12-29T06:13:10;21.30;;;3.70;;
52730;SDS011;38624;53.242;6.974;2023-12-29T06:15:36;17.00;;;3.20;;
52730;SDS011;38624;53.242;6.974;2023-12-29T06:18:02;16.80;;;3.13;;
52730;SDS011;38624;53.242;6.974;2023-12-29T06:20:28;15.02;;;2.53;;
52730;SDS011;38624;53.242;6.974;2023-12-29T06:22:54;16.67;;;3.17;;
52730;SDS011;38624;53.242;6.974;2023-12-29T06:25:21;17.40;;;3.13;;
52730;SDS011;38624;53.242;6.974;2023-12-29T06:27:47;18.42;;;2.63;;
52730;SDS011;38624;53.242;6.974;2023-12-29T06:30:13;12.85;;;3.10;;
52730;SDS011;38624;53.242;6.974;2023-12-29T06:32:39;30.60;;;3.90;;
52730;SDS011;38624;53.242;6.974;2023-12-29T06:35:05;19.57;;;3.73;;
52730;SDS011;38624;53.242;6.974;2023-12-29T06:37:31;17.10;;;2.95;;
52730;SDS011;38624;53.242;6.974;2023-12-29T06:39:57;16.50;;;3.00;;
52730;SDS011;38624;53.242;6.974;2023-12-29T06:42:23;22.65;;;3.38;;
52730;SDS011;38624;53.242;6.974;2023-12-29T06:44:49;16.00;;;2.13;;
52730;SDS011;38624;53.242;6.974;2023-12-29T06:47:14;15.93;;;2.90;;
52730;SDS011;38624;53.242;6.974;2023-12-29T06:49:40;17.08;;;3.17;;
52730;SDS011;38624;53.242;6.974;2023-12-29T06:52:06;18.33;;;3.03;;
52730;SDS011;38624;53.242;6.974;2023-12-29T06:54:33;12.32;;;2.90;;
52730;SDS011;38624;53.242;6.974;2023-12-29T06:56:59;14.60;;;2.53;;
52730;SDS011;38624;53.242;6.974;2023-12-29T06:59:25;13.48;;;2.58;;
52730;SDS011;38624;53.242;6.974;2023-12-29T07:01:50;12.82;;;2.35;;
52730;SDS011;38624;53.242;6.974;2023-12-29T07:04:16;21.17;;;2.92;;
52730;SDS011;38624;53.242;6.974;2023-12-29T07:06:42;20.63;;;3.85;;
52730;SDS011;38624;53.242;6.974;2023-12-29T07:09:08;21.55;;;3.13;;
52730;SDS011;38624;53.242;6.974;2023-12-29T07:11:34;13.85;;;2.58;;
52730;SDS011;38624;53.242;6.974;2023-12-29T07:14:01;13.90;;;2.60;;
52730;SDS011;38624;53.242;6.974;2023-12-29T07:16:26;10.48;;;1.73;;
52730;SDS011;38624;53.242;6.974;2023-12-29T07:18:52;22.25;;;3.80;;
52730;SDS011;38624;53.242;6.974;2023-12-29T07:21:18;21.95;;;3.13;;
52730;SDS011;38624;53.242;6.974;2023-12-29T07:23:44;19.42;;;2.72;;
52730;SDS011;38624;53.242;6.974;2023-12-29T07:26:10;22.73;;;3.42;;
52730;SDS011;38624;53.242;6.974;2023-12-29T07:28:35;21.45;;;3.40;;
52730;SDS011;38624;53.242;6.974;2023-12-29T07:31:01;29.20;;;3.47;;
52730;SDS011;38624;53.242;6.974;2023-12-29T07:33:27;20.95;;;3.03;;
52730;SDS011;38624;53.242;6.974;2023-12-29T07:35:53;15.75;;;2.63;;
52730;SDS011;38624;53.242;6.974;2023-12-29T07:38:19;19.75;;;2.92;;
52730;SDS011;38624;53.242;6.974;2023-12-29T07:40:45;19.77;;;2.92;;
52730;SDS011;38624;53.242;6.974;2023-12-29T07:43:12;18.88;;;3.70;;
52730;SDS011;38624;53.242;6.974;2023-12-29T07:45:38;16.83;;;2.65;;
52730;SDS011;38624;53.242;6.974;2023-12-29T07:48:04;16.50;;;2.83;;
52730;SDS011;38624;53.242;6.974;2023-12-29T07:50:30;17.27;;;2.83;;
52730;SDS011;38624;53.242;6.974;2023-12-29T07:52:56;13.82;;;2.80;;
52730;SDS011;38624;53.242;6.974;2023-12-29T07:55:22;29.02;;;4.30;;
52730;SDS011;38624;53.242;6.974;2023-12-29T07:57:48;18.35;;;2.75;;
52730;SDS011;38624;53.242;6.974;2023-12-29T08:00:16;13.60;;;2.47;;
52730;SDS011;38624;53.242;6.974;2023-12-29T08:02:43;26.50;;;4.03;;
52730;SDS011;38624;53.242;6.974;2023-12-29T08:05:08;28.00;;;3.55;;
52730;SDS011;38624;53.242;6.974;2023-12-29T08:07:37;23.05;;;2.97;;
52730;SDS011;38624;53.242;6.974;2023-12-29T08:10:04;19.77;;;3.28;;
52730;SDS011;38624;53.242;6.974;2023-12-29T08:12:30;30.33;;;4.50;;
52730;SDS011;38624;53.242;6.974;2023-12-29T08:14:58;25.88;;;3.67;;
52730;SDS011;38624;53.242;6.974;2023-12-29T08:17:24;14.90;;;3.55;;
52730;SDS011;38624;53.242;6.974;2023-12-29T08:19:50;18.00;;;3.58;;
52730;SDS011;38624;53.242;6.974;2023-12-29T08:22:16;27.73;;;3.83;;
52730;SDS011;38624;53.242;6.974;2023-12-29T08:24:41;20.70;;;3.30;;
52730;SDS011;38624;53.242;6.974;2023-12-29T08:27:11;22.98;;;3.47;;
52730;SDS011;38624;53.242;6.974;2023-12-29T08:29:38;20.02;;;3.72;;
52730;SDS011;38624;53.242;6.974;2023-12-29T08:32:03;24.70;;;3.47;;
52730;SDS011;38624;53.242;6.974;2023-12-29T08:34:29;19.25;;;3.05;;
52730;SDS011;38624;53.242;6.974;2023-12-29T08:36:55;27.42;;;3.25;;
52730;SDS011;38624;53.242;6.974;2023-12-29T08:39:21;17.83;;;3.28;;
52730;SDS011;38624;53.242;6.974;2023-12-29T08:41:47;22.23;;;3.00;;
52730;SDS011;38624;53.242;6.974;2023-12-29T08:44:16;25.40;;;3.38;;
52730;SDS011;38624;53.242;6.974;2023-12-29T08:46:42;20.98;;;3.33;;
52730;SDS011;38624;53.242;6.974;2023-12-29T08:49:08;27.65;;;3.72;;
52730;SDS011;38624;53.242;6.974;2023-12-29T08:51:34;22.90;;;3.67;;
52730;SDS011;38624;53.242;6.974;2023-12-29T08:53:59;22.05;;;3.20;;
52730;SDS011;38624;53.242;6.974;2023-12-29T08:56:25;20.23;;;3.28;;
52730;SDS011;38624;53.242;6.974;2023-12-29T08:58:51;22.13;;;3.92;;
52730;SDS011;38624;53.242;6.974;2023-12-29T09:01:17;23.95;;;4.43;;
52730;SDS011;38624;53.242;6.974;2023-12-29T09:03:43;10.73;;;2.72;;
52730;SDS011;38624;53.242;6.974;2023-12-29T09:06:09;26.40;;;4.40;;
52730;SDS011;38624;53.242;6.974;2023-12-29T09:08:35;18.05;;;3.25;;
52730;SDS011;38624;53.242;6.974;2023-12-29T09:11:00;14.95;;;2.88;;
52730;SDS011;38624;53.242;6.974;2023-12-29T09:13:26;24.95;;;3.97;;
52730;SDS011;38624;53.242;6.974;2023-12-29T09:15:56;22.90;;;2.95;;
52730;SDS011;38624;53.242;6.974;2023-12-29T09:18:22;16.13;;;2.33;;
52730;SDS011;38624;53.242;6.974;2023-12-29T09:20:48;23.20;;;4.82;;
52730;SDS011;38624;53.242;6.974;2023-12-29T09:23:14;21.58;;;3.20;;
52730;SDS011;38624;53.242;6.974;2023-12-29T09:25:40;24.38;;;3.15;;
52730;SDS011;38624;53.242;6.974;2023-12-29T09:28:06;25.85;;;3.85;;
52730;SDS011;38624;53.242;6.974;2023-12-29T09:30:32;16.67;;;2.60;;
52730;SDS011;38624;53.242;6.974;2023-12-29T09:32:58;18.67;;;3.73;;
52730;SDS011;38624;53.242;6.974;2023-12-29T09:35:23;17.58;;;3.53;;
52730;SDS011;38624;53.242;6.974;2023-12-29T09:37:49;19.70;;;4.10;;
52730;SDS011;38624;53.242;6.974;2023-12-29T09:40:15;19.77;;;3.50;;
52730;SDS011;38624;53.242;6.974;2023-12-29T09:42:42;21.85;;;2.65;;
52730;SDS011;38624;53.242;6.974;2023-12-29T09:45:10;19.55;;;3.28;;
52730;SDS011;38624;53.242;6.974;2023-12-29T09:47:41;11.82;;;2.33;;
52730;SDS011;38624;53.242;6.974;2023-12-29T09:50:12;15.55;;;2.75;;
52730;SDS011;38624;53.242;6.974;2023-12-29T09:52:38;24.75;;;3.78;;
52730;SDS011;38624;53.242;6.974;2023-12-29T09:55:09;19.42;;;3.28;;
52730;SDS011;38624;53.242;6.974;2023-12-29T09:57:39;25.13;;;3.40;;
52730;SDS011;38624;53.242;6.974;2023-12-29T10:00:06;24.48;;;3.20;;
52730;SDS011;38624;53.242;6.974;2023-12-29T10:02:35;17.92;;;3.70;;
52730;SDS011;38624;53.242;6.974;2023-12-29T10:05:02;20.65;;;3.58;;
52730;SDS011;38624;53.242;6.974;2023-12-29T10:07:29;22.85;;;3.17;;
52730;SDS011;38624;53.242;6.974;2023-12-29T10:10:00;18.15;;;2.47;;
52730;SDS011;38624;53.242;6.974;2023-12-29T10:12:28;18.30;;;3.20;;
52730;SDS011;38624;53.242;6.974;2023-12-29T10:15:10;15.68;;;2.80;;
52730;SDS011;38624;53.242;6.974;2023-12-29T10:17:48;17.90;;;3.03;;
52730;SDS011;38624;53.242;6.974;2023-12-29T10:23:44;20.90;;;2.92;;
52730;SDS011;38624;53.242;6.974;2023-12-29T10:26:15;20.90;;;3.40;;
52730;SDS011;38624;53.242;6.974;2023-12-29T10:28:41;17.92;;;3.15;;
52730;SDS011;38624;53.242;6.974;2023-12-29T10:31:06;15.45;;;3.08;;
52730;SDS011;38624;53.242;6.974;2023-12-29T10:33:39;15.82;;;3.03;;
52730;SDS011;38624;53.242;6.974;2023-12-29T10:36:05;14.88;;;2.80;;
52730;SDS011;38624;53.242;6.974;2023-12-29T10:38:33;15.98;;;3.13;;
52730;SDS011;38624;53.242;6.974;2023-12-29T10:41:12;22.55;;;2.95;;
52730;SDS011;38624;53.242;6.974;2023-12-29T10:43:42;21.45;;;2.95;;
52730;SDS011;38624;53.242;6.974;2023-12-29T10:46:10;20.10;;;3.22;;
52730;SDS011;38624;53.242;6.974;2023-12-29T10:48:37;13.70;;;2.60;;
52730;SDS011;38624;53.242;6.974;2023-12-29T10:51:03;14.57;;;2.63;;
52730;SDS011;38624;53.242;6.974;2023-12-29T10:53:30;15.65;;;2.83;;
52730;SDS011;38624;53.242;6.974;2023-12-29T10:56:00;18.80;;;2.95;;
52730;SDS011;38624;53.242;6.974;2023-12-29T10:58:29;22.02;;;2.58;;
52730;SDS011;38624;53.242;6.974;2023-12-29T11:00:56;13.30;;;2.42;;
52730;SDS011;38624;53.242;6.974;2023-12-29T11:03:22;8.48;;;1.70;;
52730;SDS011;38624;53.242;6.974;2023-12-29T11:05:49;13.75;;;2.67;;
52730;SDS011;38624;53.242;6.974;2023-12-29T11:08:19;11.35;;;2.10;;
52730;SDS011;38624;53.242;6.974;2023-12-29T11:10:49;10.70;;;2.30;;
52730;SDS011;38624;53.242;6.974;2023-12-29T11:13:16;10.82;;;2.08;;
52730;SDS011;38624;53.242;6.974;2023-12-29T11:15:43;8.77;;;2.08;;
52730;SDS011;38624;53.242;6.974;2023-12-29T11:18:14;10.48;;;1.92;;
52730;SDS011;38624;53.242;6.974;2023-12-29T11:20:41;13.88;;;2.15;;
52730;SDS011;38624;53.242;6.974;2023-12-29T11:23:11;9.70;;;1.83;;
52730;SDS011;38624;53.242;6.974;2023-12-29T11:25:40;9.93;;;2.33;;
52730;SDS011;38624;53.242;6.974;2023-12-29T11:28:10;8.77;;;1.90;;
52730;SDS011;38624;53.242;6.974;2023-12-29T11:30:39;15.95;;;1.98;;
52730;SDS011;38624;53.242;6.974;2023-12-29T11:33:10;10.43;;;1.98;;
52730;SDS011;38624;53.242;6.974;2023-12-29T11:35:45;13.45;;;2.70;;
52730;SDS011;38624;53.242;6.974;2023-12-29T11:43:45;11.25;;;2.47;;
52730;SDS011;38624;53.242;6.974;2023-12-29T11:46:33;10.35;;;1.98;;
52730;SDS011;38624;53.242;6.974;2023-12-29T11:48:59;13.80;;;2.20;;
52730;SDS011;38624;53.242;6.974;2023-12-29T11:51:41;8.20;;;2.15;;
52730;SDS011;38624;53.242;6.974;2023-12-29T11:54:08;12.13;;;3.33;;
52730;SDS011;38624;53.242;6.974;2023-12-29T11:56:38;11.63;;;1.90;;
52730;SDS011;38624;53.242;6.974;2023-12-29T11:59:12;6.53;;;1.55;;
52730;SDS011;38624;53.242;6.974;2023-12-29T12:01:49;11.50;;;2.75;;
52730;SDS011;38624;53.242;6.974;2023-12-29T12:12:48;6.60;;;1.73;;
52730;SDS011;38624;53.242;6.974;2023-12-29T12:18:01;11.70;;;2.10;;
52730;SDS011;38624;53.242;6.974;2023-12-29T12:20:32;9.00;;;1.98;;
52730;SDS011;38624;53.242;6.974;2023-12-29T12:23:04;10.95;;;2.13;;
52730;SDS011;38624;53.242;6.974;2023-12-29T12:25:42;8.77;;;1.92;;
52730;SDS011;38624;53.242;6.974;2023-12-29T12:28:10;18.35;;;2.00;;
52730;SDS011;38624;53.242;6.974;2023-12-29T12:30:39;9.73;;;1.73;;
52730;SDS011;38624;53.242;6.974;2023-12-29T12:33:05;12.90;;;2.17;;
52730;SDS011;38624;53.242;6.974;2023-12-29T12:35:31;8.65;;;1.60;;
52730;SDS011;38624;53.242;6.974;2023-12-29T12:40:55;13.10;;;2.35;;
52730;SDS011;38624;53.242;6.974;2023-12-29T12:43:21;6.67;;;1.80;;
52730;SDS011;38624;53.242;6.974;2023-12-29T12:45:53;8.15;;;2.03;;
52730;SDS011;38624;53.242;6.974;2023-12-29T12:48:28;10.48;;;1.77;;
52730;SDS011;38624;53.242;6.974;2023-12-29T12:51:00;11.20;;;1.92;;
52730;SDS011;38624;53.242;6.974;2023-12-29T12:53:28;11.38;;;2.00;;
52730;SDS011;38624;53.242;6.974;2023-12-29T12:55:54;7.63;;;1.90;;
52730;SDS011;38624;53.242;6.974;2023-12-29T12:58:20;10.75;;;2.20;;
52730;SDS011;38624;53.242;6.974;2023-12-29T13:00:46;7.47;;;1.42;;
52730;SDS011;38624;53.242;6.974;2023-12-29T13:03:12;11.80;;;2.03;;
52730;SDS011;38624;53.242;6.974;2023-12-29T13:05:40;8.65;;;1.60;;
52730;SDS011;38624;53.242;6.974;2023-12-29T13:08:06;4.88;;;1.27;;
52730;SDS011;38624;53.242;6.974;2023-12-29T13:10:32;12.52;;;2.38;;
52730;SDS011;38624;53.242;6.974;2023-12-29T13:12:58;12.95;;;1.75;;
52730;SDS011;38624;53.242;6.974;2023-12-29T13:15:24;12.45;;;2.53;;
52730;SDS011;38624;53.242;6.974;2023-12-29T13:17:53;14.00;;;2.63;;
52730;SDS011;38624;53.242;6.974;2023-12-29T13:20:19;6.53;;;1.50;;
52730;SDS011;38624;53.242;6.974;2023-12-29T13:22:48;7.53;;;1.95;;
52730;SDS011;38624;53.242;6.974;2023-12-29T13:25:20;7.25;;;1.60;;
52730;SDS011;38624;53.242;6.974;2023-12-29T13:27:49;14.75;;;2.58;;
52730;SDS011;38624;53.242;6.974;2023-12-29T13:30:16;4.90;;;1.58;;
52730;SDS011;38624;53.242;6.974;2023-12-29T13:32:43;15.20;;;2.30;;
52730;SDS011;38624;53.242;6.974;2023-12-29T13:35:19;10.48;;;2.17;;
52730;SDS011;38624;53.242;6.974;2023-12-29T13:40:38;11.30;;;1.77;;
52730;SDS011;38624;53.242;6.974;2023-12-29T13:43:19;7.70;;;1.58;;
52730;SDS011;38624;53.242;6.974;2023-12-29T13:45:46;12.93;;;2.97;;
52730;SDS011;38624;53.242;6.974;2023-12-29T13:48:13;16.27;;;2.65;;
52730;SDS011;38624;53.242;6.974;2023-12-29T13:53:15;11.18;;;2.08;;
52730;SDS011;38624;53.242;6.974;2023-12-29T13:55:44;15.95;;;2.10;;
52730;SDS011;38624;53.242;6.974;2023-12-29T13:58:10;13.43;;;2.22;;
52730;SDS011;38624;53.242;6.974;2023-12-29T14:00:37;14.93;;;2.40;;
52730;SDS011;38624;53.242;6.974;2023-12-29T14:03:15;7.65;;;1.85;;
52730;SDS011;38624;53.242;6.974;2023-12-29T14:05:52;7.32;;;1.63;;
52730;SDS011;38624;53.242;6.974;2023-12-29T14:08:34;11.43;;;2.10;;
52730;SDS011;38624;53.242;6.974;2023-12-29T14:11:08;15.00;;;4.60;;
52730;SDS011;38624;53.242;6.974;2023-12-29T14:13:35;12.30;;;2.80;;
52730;SDS011;38624;53.242;6.974;2023-12-29T14:16:01;10.85;;;1.90;;
52730;SDS011;38624;53.242;6.974;2023-12-29T14:20:58;13.50;;;3.60;;
52730;SDS011;38624;53.242;6.974;2023-12-29T14:23:24;16.27;;;2.42;;
52730;SDS011;38624;53.242;6.974;2023-12-29T14:25:50;12.25;;;1.90;;
52730;SDS011;38624;53.242;6.974;2023-12-29T14:28:20;12.00;;;2.15;;
52730;SDS011;38624;53.242;6.974;2023-12-29T14:30:47;8.35;;;1.90;;
52730;SDS011;38624;53.242;6.974;2023-12-29T14:33:13;10.18;;;2.00;;
52730;SDS011;38624;53.242;6.974;2023-12-29T14:35:38;12.38;;;2.53;;
52730;SDS011;38624;53.242;6.974;2023-12-29T14:38:04;15.43;;;2.42;;
52730;SDS011;38624;53.242;6.974;2023-12-29T14:40:30;11.73;;;1.80;;
52730;SDS011;38624;53.242;6.974;2023-12-29T14:42:59;10.07;;;2.08;;
52730;SDS011;38624;53.242;6.974;2023-12-29T14:45:25;17.60;;;3.20;;
52730;SDS011;38624;53.242;6.974;2023-12-29T14:47:54;17.08;;;2.88;;
52730;SDS011;38624;53.242;6.974;2023-12-29T14:50:22;14.88;;;3.28;;
52730;SDS011;38624;53.242;6.974;2023-12-29T14:52:48;14.70;;;2.30;;
52730;SDS011;38624;53.242;6.974;2023-12-29T14:55:13;7.75;;;1.90;;
52730;SDS011;38624;53.242;6.974;2023-12-29T14:57:39;13.73;;;2.07;;
52730;SDS011;38624;53.242;6.974;2023-12-29T15:00:05;16.15;;;2.58;;
52730;SDS011;38624;53.242;6.974;2023-12-29T15:02:31;11.65;;;2.05;;
52730;SDS011;38624;53.242;6.974;2023-12-29T15:04:57;11.45;;;2.53;;
52730;SDS011;38624;53.242;6.974;2023-12-29T15:07:22;10.45;;;1.83;;
52730;SDS011;38624;53.242;6.974;2023-12-29T15:09:54;10.23;;;1.65;;
52730;SDS011;38624;53.242;6.974;2023-12-29T15:12:20;7.20;;;2.35;;